Time,TemperatureF,DewpointF,PressureIn,WindDirection,WindDirectionDegrees,WindSpeedMPH,WindSpeedGustMPH,Humidity,HourlyPrecipIn,Conditions,Clouds,dailyrainin,SoftwareType,DateUTC
2013-02-03 06:17:00,0.3,-17.8,30.03,NW,306,7.6,10.5,41,0.00,,---,0.00,VWS V14.01,2013-02-03 12:17:00,
2013-02-03 06:18:00,0.3,-17.8,30.03,NW,319,8.7,8.7,41,0.00,,---,0.00,VWS V14.01,2013-02-03 12:18:00,
2013-02-03 06:20:00,0.3,-17.8,30.03,WNW,298,7.6,7.6,41,0.00,,---,0.00,VWS V14.01,2013-02-03 12:20:00,
2013-02-03 06:26:00,0.1,-18.0,30.03,WNW,285,5.8,7.6,41,0.00,,---,0.00,VWS V14.01,2013-02-03 12:26:00,
2013-02-03 06:31:00,0.0,-18.1,30.03,West,267,6.3,8.7,41,0.00,,---,0.00,VWS V14.01,2013-02-03 12:31:00,
2013-02-03 06:37:00,0.0,-18.1,30.03,West,275,8.1,8.1,41,0.00,,---,0.00,VWS V14.01,2013-02-03 12:37:00,
2013-02-03 06:42:00,-0.2,-18.3,30.03,West,273,6.7,6.7,41,0.00,,---,0.00,VWS V14.01,2013-02-03 12:42:00,
2013-02-03 06:47:00,-0.2,-18.3,30.03,WNW,291,4.0,4.9,41,0.00,,---,0.00,VWS V14.01,2013-02-03 12:47:00,
2013-02-03 06:52:00,0.0,-18.1,30.03,NW,312,6.3,8.3,41,0.00,,---,0.00,VWS V14.01,2013-02-03 12:52:00,
2013-02-03 06:57:00,0.0,-18.1,30.03,WNW,282,2.7,7.6,41,0.00,,---,0.00,VWS V14.01,2013-02-03 12:57:00,
2013-02-03 07:02:00,0.3,-17.8,30.03,West,281,3.6,5.8,41,0.00,,---,0.00,VWS V14.01,2013-02-03 13:02:00,
2013-02-03 07:07:00,0.9,-17.3,30.03,WNW,290,4.0,4.9,41,0.00,,---,0.00,VWS V14.01,2013-02-03 13:07:00,
2013-02-03 07:13:00,1.2,-17.0,30.03,WNW,302,5.8,7.6,41,0.00,,---,0.00,VWS V14.01,2013-02-03 13:13:00,
2013-02-03 07:19:00,1.6,-16.7,30.03,WNW,294,3.1,7.2,41,0.00,,---,0.00,VWS V14.01,2013-02-03 13:19:00,
2013-02-03 07:24:00,1.8,-16.5,30.03,NW,314,3.1,5.8,41,0.00,,---,0.00,VWS V14.01,2013-02-03 13:24:00,
2013-02-03 07:30:00,2.1,-16.2,30.03,NW,319,4.9,5.8,41,0.00,,---,0.00,VWS V14.01,2013-02-03 13:30:00,
2013-02-03 07:35:00,2.3,-16.0,30.03,WNW,288,8.3,8.7,41,0.00,,---,0.00,VWS V14.01,2013-02-03 13:35:00,
2013-02-03 07:40:00,2.3,-16.0,30.03,NW,310,7.6,8.7,41,0.00,,---,0.00,VWS V14.01,2013-02-03 13:40:00,
2013-02-03 07:45:00,1.9,-16.3,30.03,West,275,4.9,5.8,41,0.00,,---,0.00,VWS V14.01,2013-02-03 13:45:00,
2013-02-03 07:51:00,2.1,-16.2,30.03,NW,309,5.8,5.8,41,0.00,,---,0.00,VWS V14.01,2013-02-03 13:51:00,
2013-02-03 07:56:00,2.1,-16.2,30.03,NW,317,4.0,4.0,41,0.00,,---,0.00,VWS V14.01,2013-02-03 13:56:00,
2013-02-03 08:01:00,1.8,-16.5,30.03,NW,305,4.9,4.9,41,0.00,,---,0.00,VWS V14.01,2013-02-03 14:01:00,
2013-02-03 08:06:00,1.6,-16.7,30.03,NW,321,6.3,8.7,41,0.00,,---,0.00,VWS V14.01,2013-02-03 14:06:00,
2013-02-03 08:12:00,1.6,-16.7,30.03,NW,304,5.4,5.8,41,0.00,,---,0.00,VWS V14.01,2013-02-03 14:12:00,
2013-02-03 08:18:00,1.8,-16.5,30.03,WNW,287,4.0,4.9,41,0.00,,---,0.00,VWS V14.01,2013-02-03 14:18:00,
2013-02-03 08:23:00,2.1,-16.2,30.03,WNW,294,8.1,8.1,41,0.00,,---,0.00,VWS V14.01,2013-02-03 14:23:00,
2013-02-03 08:28:00,2.3,-16.0,30.03,WNW,296,5.4,5.4,41,0.00,,---,0.00,VWS V14.01,2013-02-03 14:28:00,
2013-02-03 08:34:00,2.5,-15.8,30.03,NW,324,5.8,6.3,41,0.00,,---,0.00,VWS V14.01,2013-02-03 14:34:00,
2013-02-03 08:40:00,2.8,-15.5,30.03,WNW,292,6.3,8.1,41,0.00,,---,0.00,VWS V14.01,2013-02-03 14:40:00,
2013-02-03 08:46:00,3.2,-15.2,30.03,WNW,297,5.4,7.6,41,0.00,,---,0.00,VWS V14.01,2013-02-03 14:46:00,
2013-02-03 08:51:00,3.6,-14.9,30.03,NW,308,3.1,5.8,41,0.00,,---,0.00,VWS V14.01,2013-02-03 14:51:00,
2013-02-03 08:57:00,3.9,-14.5,30.03,WNW,301,5.8,7.2,41,0.00,,---,0.00,VWS V14.01,2013-02-03 14:57:00,
2013-02-03 09:02:00,4.3,-14.2,30.03,WNW,283,3.1,4.0,41,0.00,,---,0.00,VWS V14.01,2013-02-03 15:02:00,
2013-02-03 09:08:00,4.6,-13.9,30.03,WNW,299,5.4,8.3,41,0.00,,---,0.00,VWS V14.01,2013-02-03 15:08:00,
2013-02-03 09:13:00,4.8,-13.7,30.03,NW,320,6.3,8.3,41,0.00,,---,0.00,VWS V14.01,2013-02-03 15:13:00,
2013-02-03 09:19:00,5.0,-13.5,30.03,NNW,338,5.4,6.3,41,0.00,,---,0.00,VWS V14.01,2013-02-03 15:19:00,
2013-02-03 09:24:00,5.4,-13.2,30.03,WNW,301,3.6,7.6,41,0.00,,---,0.00,VWS V14.01,2013-02-03 15:24:00,
2013-02-03 09:29:00,5.5,-13.1,30.03,WNW,297,5.8,7.6,41,0.00,,---,0.00,VWS V14.01,2013-02-03 15:29:00,
2013-02-03 09:35:00,5.9,-12.7,30.03,WNW,294,7.2,8.3,41,0.00,,---,0.00,VWS V14.01,2013-02-03 15:35:00,
2013-02-03 09:40:00,6.3,-12.4,30.03,NW,308,7.6,8.1,41,0.00,,---,0.00,VWS V14.01,2013-02-03 15:40:00,
2013-02-03 09:45:00,6.8,-11.9,30.03,NW,309,8.1,8.1,41,0.00,,---,0.00,VWS V14.01,2013-02-03 15:45:00,
2013-02-03 09:50:00,7.3,-11.4,30.03,NW,318,7.6,8.7,41,0.00,,---,0.00,VWS V14.01,2013-02-03 15:50:00,
2013-02-03 09:56:00,7.7,-11.1,30.03,NNW,335,8.1,8.7,41,0.00,,---,0.00,VWS V14.01,2013-02-03 15:56:00,
2013-02-03 10:01:00,8.1,-10.8,30.03,WNW,300,8.1,11.0,41,0.00,,---,0.00,VWS V14.01,2013-02-03 16:01:00,
2013-02-03 10:07:00,8.6,-10.3,30.03,WNW,292,5.4,8.1,41,0.00,,---,0.00,VWS V14.01,2013-02-03 16:07:00,
2013-02-03 10:12:00,8.6,-10.3,30.03,WNW,297,6.7,6.7,41,0.00,,---,0.00,VWS V14.01,2013-02-03 16:12:00,
2013-02-03 10:18:00,9.1,-9.8,30.03,WNW,285,6.7,8.7,41,0.00,,---,0.00,VWS V14.01,2013-02-03 16:18:00,
2013-02-03 10:24:00,9.5,-9.4,30.03,NNW,336,8.1,10.1,41,0.00,,---,0.00,VWS V14.01,2013-02-03 16:24:00,
2013-02-03 10:29:00,9.3,-9.6,30.03,NNW,335,7.6,8.7,41,0.00,,---,0.00,VWS V14.01,2013-02-03 16:29:00,
2013-02-03 10:35:00,9.5,-9.4,30.03,WNW,294,5.4,5.4,41,0.00,,---,0.00,VWS V14.01,2013-02-03 16:35:00,
2013-02-03 10:40:00,9.5,-9.4,30.03,West,279,8.1,10.1,41,0.00,,---,0.00,VWS V14.01,2013-02-03 16:40:00,
2013-02-03 10:45:00,9.7,-9.3,30.03,NW,311,0.0,7.2,41,0.00,,---,0.00,VWS V14.01,2013-02-03 16:45:00,
2013-02-03 10:50:00,10.0,-8.9,30.03,WNW,290,7.6,10.1,41,0.00,,---,0.00,VWS V14.01,2013-02-03 16:50:00,
2013-02-03 10:56:00,10.2,-8.8,30.03,NW,311,11.0,11.0,41,0.00,,---,0.00,VWS V14.01,2013-02-03 16:56:00,
2013-02-03 11:01:00,10.2,-8.8,30.03,NW,305,8.3,8.3,41,0.00,,---,0.00,VWS V14.01,2013-02-03 17:01:00,
2013-02-03 11:06:00,10.4,-8.6,30.03,WNW,287,10.1,10.5,41,0.00,,---,0.00,VWS V14.01,2013-02-03 17:06:00,
2013-02-03 11:11:00,11.3,-7.8,30.03,NNW,332,6.3,9.6,41,0.00,,---,0.00,VWS V14.01,2013-02-03 17:11:00,
2013-02-03 11:16:00,11.7,-7.5,30.03,WNW,289,8.3,10.1,41,0.00,,---,0.00,VWS V14.01,2013-02-03 17:16:00,
2013-02-03 11:21:00,12.2,-7.0,30.03,WNW,289,5.4,8.3,41,0.00,,---,0.00,VWS V14.01,2013-02-03 17:21:00,
2013-02-03 11:27:00,12.6,-6.7,30.03,WNW,301,7.6,8.3,41,0.00,,---,0.00,VWS V14.01,2013-02-03 17:27:00,
2013-02-03 11:32:00,12.9,-6.3,30.03,WNW,294,4.0,8.1,41,0.00,,---,0.00,VWS V14.01,2013-02-03 17:32:00,
2013-02-03 11:38:00,12.4,-6.8,30.03,WNW,289,4.0,5.8,41,0.00,,---,0.00,VWS V14.01,2013-02-03 17:38:00,
2013-02-03 11:43:00,12.6,-6.7,30.03,NW,313,5.4,8.3,41,0.00,,---,0.00,VWS V14.01,2013-02-03 17:43:00,
2013-02-03 11:49:00,13.3,-6.0,30.03,NW,308,3.6,7.6,41,0.00,,---,0.00,VWS V14.01,2013-02-03 17:49:00,
2013-02-03 11:55:00,13.8,-5.5,30.03,NNW,327,7.6,8.7,41,0.00,,---,0.00,VWS V14.01,2013-02-03 17:55:00,
2013-02-03 12:00:00,14.4,-3.6,30.03,WNW,290,7.6,8.7,44,0.00,,---,0.00,VWS V14.01,2013-02-03 18:00:00,
2013-02-03 12:06:00,15.1,-2.9,30.03,NNW,329,8.1,8.1,44,0.00,,---,0.00,VWS V14.01,2013-02-03 18:06:00,
2013-02-03 12:11:00,14.9,-3.1,30.03,NW,311,4.0,8.7,44,0.00,,---,0.00,VWS V14.01,2013-02-03 18:11:00,
2013-02-03 12:17:00,15.3,-2.7,30.03,NNW,346,8.7,8.7,44,0.00,,---,0.00,VWS V14.01,2013-02-03 18:17:00,
2013-02-03 12:22:00,15.8,-2.2,30.03,NW,312,3.6,6.3,44,0.00,,---,0.00,VWS V14.01,2013-02-03 18:22:00,
2013-02-03 12:28:00,16.2,-2.4,30.03,NW,323,4.0,6.3,43,0.00,,---,0.00,VWS V14.01,2013-02-03 18:28:00,
2013-02-03 12:34:00,16.7,-1.9,30.00,NW,310,5.8,5.8,43,0.00,,---,0.00,VWS V14.01,2013-02-03 18:34:00,
2013-02-03 12:39:00,17.8,-0.9,30.00,NNW,328,5.8,6.3,43,0.00,,---,0.00,VWS V14.01,2013-02-03 18:39:00,
2013-02-03 12:44:00,18.3,-0.9,30.00,West,272,4.9,5.8,42,0.00,,---,0.00,VWS V14.01,2013-02-03 18:44:00,
2013-02-03 12:49:00,18.9,-0.4,30.00,NNW,341,6.3,6.3,42,0.00,,---,0.00,VWS V14.01,2013-02-03 18:49:00,
2013-02-03 12:55:00,19.0,-0.3,30.00,NNW,331,3.1,4.9,42,0.00,,---,0.00,VWS V14.01,2013-02-03 18:55:00,
2013-02-03 13:00:00,17.8,-1.9,30.00,West,267,2.7,4.9,41,0.00,,---,0.00,VWS V14.01,2013-02-03 19:00:00,
2013-02-03 13:05:00,17.6,-1.1,30.00,WNW,291,3.6,5.8,43,0.00,,---,0.00,VWS V14.01,2013-02-03 19:05:00,
2013-02-03 13:10:00,16.5,-2.1,30.00,NW,317,4.9,8.1,43,0.00,,---,0.00,VWS V14.01,2013-02-03 19:10:00,
2013-02-03 13:16:00,16.9,-1.7,30.00,NW,304,4.0,6.3,43,0.00,,---,0.00,VWS V14.01,2013-02-03 19:16:00,
2013-02-03 13:21:00,16.7,-1.9,30.00,WNW,303,2.7,3.6,43,0.00,,---,0.00,VWS V14.01,2013-02-03 19:21:00,
2013-02-03 13:26:00,17.8,-0.9,30.00,West,269,6.3,6.3,43,0.00,,---,0.00,VWS V14.01,2013-02-03 19:26:00,
2013-02-03 13:31:00,18.0,-0.8,30.00,SW,234,5.8,8.1,43,0.00,,---,0.00,VWS V14.01,2013-02-03 19:31:00,
2013-02-03 13:37:00,19.2,0.4,30.00,WSW,258,5.8,7.2,43,0.00,,---,0.00,VWS V14.01,2013-02-03 19:37:00,
2013-02-03 13:42:00,18.7,-0.1,30.00,WSW,237,8.1,8.1,43,0.00,,---,0.00,VWS V14.01,2013-02-03 19:42:00,
2013-02-03 13:48:00,18.1,-0.6,29.97,WSW,253,5.4,7.2,43,0.00,,---,0.00,VWS V14.01,2013-02-03 19:48:00,
2013-02-03 13:54:00,18.0,-0.8,29.97,West,269,3.1,5.8,43,0.00,,---,0.00,VWS V14.01,2013-02-03 19:54:00,
2013-02-03 13:59:00,18.5,-0.3,29.97,WSW,240,4.9,5.8,43,0.00,,---,0.00,VWS V14.01,2013-02-03 19:59:00,
2013-02-03 14:04:00,18.1,-0.6,29.97,SW,224,5.4,8.1,43,0.00,,---,0.00,VWS V14.01,2013-02-03 20:04:00,
2013-02-03 14:09:00,17.6,-1.1,29.97,WSW,242,0.0,2.2,43,0.00,,---,0.00,VWS V14.01,2013-02-03 20:09:00,
2013-02-03 14:15:00,17.4,-1.2,29.97,WSW,239,5.4,5.8,43,0.00,,---,0.00,VWS V14.01,2013-02-03 20:15:00,
2013-02-03 14:20:00,17.1,-1.6,29.97,WSW,239,2.2,3.6,43,0.00,,---,0.00,VWS V14.01,2013-02-03 20:20:00,
2013-02-03 14:25:00,16.2,-2.4,29.97,WSW,252,6.3,6.3,43,0.00,,---,0.00,VWS V14.01,2013-02-03 20:25:00,
2013-02-03 14:30:00,16.0,-2.6,29.97,WSW,252,4.9,5.4,43,0.00,,---,0.00,VWS V14.01,2013-02-03 20:30:00,
2013-02-03 14:35:00,16.3,-1.7,29.97,WSW,245,2.7,6.3,44,0.00,,---,0.00,VWS V14.01,2013-02-03 20:35:00,
2013-02-03 14:40:00,17.1,-1.1,29.97,SW,233,5.4,5.4,44,0.00,,---,0.00,VWS V14.01,2013-02-03 20:40:00,
2013-02-03 14:45:00,17.8,-0.9,29.97,SW,236,5.4,5.4,43,0.00,,---,0.00,VWS V14.01,2013-02-03 20:45:00,
2013-02-03 14:51:00,18.1,-0.6,29.97,SW,230,2.7,3.6,43,0.00,,---,0.00,VWS V14.01,2013-02-03 20:51:00,
2013-02-03 14:56:00,18.0,-0.8,29.97,SW,233,4.9,4.9,43,0.00,,---,0.00,VWS V14.01,2013-02-03 20:56:00,
2013-02-03 15:02:00,17.4,-1.2,29.97,WSW,238,3.6,4.0,43,0.00,,---,0.00,VWS V14.01,2013-02-03 21:02:00,
2013-02-03 15:08:00,17.2,-0.9,29.97,SW,231,4.0,4.9,44,0.00,,---,0.00,VWS V14.01,2013-02-03 21:08:00,
2013-02-03 15:13:00,16.9,-1.2,29.97,West,260,3.6,3.6,44,0.00,,---,0.00,VWS V14.01,2013-02-03 21:13:00,
2013-02-03 15:19:00,16.2,-1.9,29.97,West,261,3.1,5.4,44,0.00,,---,0.00,VWS V14.01,2013-02-03 21:19:00,
2013-02-03 15:25:00,15.4,-2.6,29.97,WSW,243,4.0,4.0,44,0.00,,---,0.00,VWS V14.01,2013-02-03 21:25:00,
2013-02-03 15:30:00,14.9,-3.1,29.97,NW,305,2.7,3.6,44,0.00,,---,0.00,VWS V14.01,2013-02-03 21:30:00,
2013-02-03 15:35:00,14.4,-3.6,29.97,NW,307,5.4,5.4,44,0.00,,---,0.00,VWS V14.01,2013-02-03 21:35:00,
2013-02-03 15:41:00,14.0,-3.4,29.97,WNW,302,0.0,3.6,45,0.00,,---,0.00,VWS V14.01,2013-02-03 21:41:00,
2013-02-03 15:47:00,14.4,-3.6,29.97,WNW,301,0.0,0.0,44,0.00,,---,0.00,VWS V14.01,2013-02-03 21:47:00,
2013-02-03 15:52:00,14.2,-3.7,29.97,WNW,302,0.0,0.0,44,0.00,,---,0.00,VWS V14.01,2013-02-03 21:52:00,
2013-02-03 15:58:00,14.2,-3.7,29.97,WNW,302,0.0,0.0,44,0.00,,---,0.00,VWS V14.01,2013-02-03 21:58:00,
2013-02-03 16:04:00,13.8,-3.6,29.97,WNW,301,0.0,0.0,45,0.00,,---,0.00,VWS V14.01,2013-02-03 22:04:00,
2013-02-03 16:09:00,14.4,-3.6,29.97,WNW,301,0.0,0.0,44,0.00,,---,0.00,VWS V14.01,2013-02-03 22:09:00,
2013-02-03 16:15:00,14.4,-3.6,29.97,WNW,302,0.0,0.0,44,0.00,,---,0.00,VWS V14.01,2013-02-03 22:15:00,
2013-02-03 16:21:00,14.2,-3.7,29.97,WNW,303,0.0,0.0,44,0.00,,---,0.00,VWS V14.01,2013-02-03 22:21:00,
2013-02-03 16:26:00,14.2,-3.7,29.97,WNW,302,2.2,3.6,44,0.00,,---,0.00,VWS V14.01,2013-02-03 22:26:00,
2013-02-03 16:31:00,13.8,-3.6,29.97,WNW,303,0.0,0.0,45,0.00,,---,0.00,VWS V14.01,2013-02-03 22:31:00,
2013-02-03 16:37:00,13.8,-3.6,29.94,WNW,302,0.0,0.0,45,0.00,,---,0.00,VWS V14.01,2013-02-03 22:37:00,
2013-02-03 16:43:00,13.6,-3.8,29.94,WNW,302,0.0,0.0,45,0.00,,---,0.00,VWS V14.01,2013-02-03 22:43:00,
2013-02-03 16:48:00,13.5,-3.9,29.94,WNW,302,0.0,0.0,45,0.00,,---,0.00,VWS V14.01,2013-02-03 22:48:00,
2013-02-03 16:54:00,12.9,-4.4,29.94,WNW,302,0.0,0.0,45,0.00,,---,0.00,VWS V14.01,2013-02-03 22:54:00,
2013-02-03 17:00:00,12.4,-4.9,29.94,WNW,302,3.1,3.1,45,0.00,,---,0.00,VWS V14.01,2013-02-03 23:00:00,
2013-02-03 17:05:00,12.2,-5.1,29.94,WNW,302,2.2,3.1,45,0.00,,---,0.00,VWS V14.01,2013-02-03 23:05:00,
2013-02-03 17:11:00,12.4,-4.9,29.94,WNW,303,0.0,0.0,45,0.00,,---,0.00,VWS V14.01,2013-02-03 23:11:00,
2013-02-03 17:16:00,12.4,-4.9,29.94,WNW,302,0.0,0.0,45,0.00,,---,0.00,VWS V14.01,2013-02-03 23:16:00,
2013-02-03 17:22:00,12.2,-5.1,29.94,WNW,302,0.0,0.0,45,0.00,,---,0.00,VWS V14.01,2013-02-03 23:22:00,
2013-02-03 17:28:00,12.2,-5.1,29.94,WNW,303,0.0,0.0,45,0.00,,---,0.00,VWS V14.01,2013-02-03 23:28:00,
2013-02-03 17:33:00,11.7,-5.6,29.94,WNW,302,0.0,0.0,45,0.00,,---,0.00,VWS V14.01,2013-02-03 23:33:00,
2013-02-03 17:39:00,11.5,-5.7,29.94,WNW,302,0.0,0.0,45,0.00,,---,0.00,VWS V14.01,2013-02-03 23:39:00,
2013-02-03 17:44:00,11.7,-5.6,29.94,WNW,302,0.0,0.0,45,0.00,,---,0.00,VWS V14.01,2013-02-03 23:44:00,
2013-02-03 17:49:00,11.8,-5.4,29.94,WNW,302,0.0,0.0,45,0.00,,---,0.00,VWS V14.01,2013-02-03 23:49:00,
2013-02-03 17:54:00,12.0,-5.2,29.94,WNW,302,0.0,0.0,45,0.00,,---,0.00,VWS V14.01,2013-02-03 23:54:00,
2013-02-03 17:59:00,12.0,-5.2,29.94,WNW,302,0.0,0.0,45,0.00,,---,0.00,VWS V14.01,2013-02-03 23:59:00,
2013-02-03 18:05:00,11.8,-5.4,29.97,WNW,302,0.0,0.0,45,0.00,,---,0.00,VWS V14.01,2013-02-04 00:05:00,
2013-02-03 18:11:00,12.0,-5.2,29.97,WNW,303,0.0,0.0,45,0.00,,---,0.00,VWS V14.01,2013-02-04 00:11:00,
2013-02-03 18:17:00,12.2,-5.1,29.97,WNW,302,0.0,0.0,45,0.00,,---,0.00,VWS V14.01,2013-02-04 00:17:00,
2013-02-03 18:22:00,12.2,-5.1,29.97,WNW,302,0.0,0.0,45,0.00,,---,0.00,VWS V14.01,2013-02-04 00:22:00,
2013-02-03 18:27:00,12.2,-5.1,29.97,WNW,302,0.0,0.0,45,0.00,,---,0.00,VWS V14.01,2013-02-04 00:27:00,
2013-02-03 18:32:00,12.4,-4.9,29.94,WNW,302,0.0,0.0,45,0.00,,---,0.00,VWS V14.01,2013-02-04 00:32:00,
2013-02-03 18:38:00,12.2,-5.1,29.94,WNW,302,0.0,0.0,45,0.00,,---,0.00,VWS V14.01,2013-02-04 00:38:00,
2013-02-03 18:43:00,12.2,-5.1,29.94,WNW,302,0.0,0.0,45,0.00,,---,0.00,VWS V14.01,2013-02-04 00:43:00,
2013-02-03 18:49:00,12.2,-5.1,29.94,WNW,302,0.0,0.0,45,0.00,,---,0.00,VWS V14.01,2013-02-04 00:49:00,
2013-02-03 18:54:00,12.2,-5.1,29.94,WNW,302,0.0,0.0,45,0.00,,---,0.00,VWS V14.01,2013-02-04 00:54:00,
2013-02-03 18:59:00,12.2,-5.1,29.94,WNW,302,0.0,0.0,45,0.00,,---,0.00,VWS V14.01,2013-02-04 00:59:00,
2013-02-03 19:04:00,12.2,-5.1,29.97,WNW,302,0.0,0.0,45,0.00,,---,0.00,VWS V14.01,2013-02-04 01:04:00,
2013-02-03 19:10:00,12.0,-5.2,29.97,WNW,302,0.0,0.0,45,0.00,,---,0.00,VWS V14.01,2013-02-04 01:10:00,
2013-02-03 19:15:00,12.0,-5.2,29.97,WNW,302,0.0,0.0,45,0.00,,---,0.00,VWS V14.01,2013-02-04 01:15:00,
2013-02-03 19:21:00,12.0,-5.2,29.97,WNW,302,0.0,0.0,45,0.00,,---,0.00,VWS V14.01,2013-02-04 01:21:00,
2013-02-03 19:27:00,12.0,-5.2,29.97,WNW,302,0.0,0.0,45,0.00,,---,0.00,VWS V14.01,2013-02-04 01:27:00,
2013-02-03 19:32:00,11.8,-5.4,29.97,WNW,302,0.0,0.0,45,0.00,,---,0.00,VWS V14.01,2013-02-04 01:32:00,
2013-02-03 19:38:00,11.8,-5.4,29.97,WNW,302,0.0,0.0,45,0.00,,---,0.00,VWS V14.01,2013-02-04 01:38:00,
2013-02-03 19:43:00,11.8,-5.4,29.97,WNW,302,0.0,0.0,45,0.00,,---,0.00,VWS V14.01,2013-02-04 01:43:00,
2013-02-03 19:49:00,11.7,-5.6,29.97,WNW,302,0.0,0.0,45,0.00,,---,0.00,VWS V14.01,2013-02-04 01:49:00,
2013-02-03 19:54:00,11.7,-5.6,29.97,WNW,302,0.0,0.0,45,0.00,,---,0.00,VWS V14.01,2013-02-04 01:54:00,
2013-02-03 20:00:00,11.5,-5.7,29.97,WNW,302,0.0,0.0,45,0.00,,---,0.00,VWS V14.01,2013-02-04 02:00:00,
2013-02-03 20:05:00,11.5,-5.7,29.97,WNW,302,0.0,0.0,45,0.00,,---,0.00,VWS V14.01,2013-02-04 02:05:00,
2013-02-03 20:10:00,11.5,-5.7,29.97,WNW,302,0.0,0.0,45,0.00,,---,0.00,VWS V14.01,2013-02-04 02:10:00,
2013-02-03 20:16:00,11.7,-5.6,29.97,WNW,302,0.0,0.0,45,0.00,,---,0.00,VWS V14.01,2013-02-04 02:16:00,
2013-02-03 20:21:00,11.5,-5.7,29.97,WNW,302,0.0,0.0,45,0.00,,---,0.00,VWS V14.01,2013-02-04 02:21:00,
2013-02-03 20:27:00,11.5,-5.7,29.97,WNW,302,0.0,0.0,45,0.00,,---,0.00,VWS V14.01,2013-02-04 02:27:00,
2013-02-03 20:32:00,11.3,-5.9,29.94,WNW,302,0.0,0.0,45,0.00,,---,0.00,VWS V14.01,2013-02-04 02:32:00,
2013-02-03 20:37:00,11.3,-5.9,29.94,WNW,302,0.0,0.0,45,0.00,,---,0.00,VWS V14.01,2013-02-04 02:37:00,
2013-02-03 20:42:00,11.3,-5.9,29.94,WNW,302,0.0,0.0,45,0.00,,---,0.00,VWS V14.01,2013-02-04 02:42:00,
2013-02-03 20:47:00,11.3,-5.9,29.94,WNW,302,3.6,3.6,45,0.00,,---,0.00,VWS V14.01,2013-02-04 02:47:00,
2013-02-03 20:52:00,11.3,-5.9,29.94,WNW,302,0.0,0.0,45,0.00,,---,0.00,VWS V14.01,2013-02-04 02:52:00,
2013-02-03 20:57:00,11.1,-6.1,29.94,WNW,302,0.0,0.0,45,0.00,,---,0.00,VWS V14.01,2013-02-04 02:57:00,
2013-02-03 21:03:00,11.1,-6.1,29.94,WNW,302,0.0,0.0,45,0.00,,---,0.00,VWS V14.01,2013-02-04 03:03:00,
2013-02-03 21:09:00,11.1,-6.1,29.94,WNW,302,0.0,0.0,45,0.00,,---,0.00,VWS V14.01,2013-02-04 03:09:00,
2013-02-03 21:14:00,11.1,-6.1,29.94,WNW,302,0.0,0.0,45,0.00,,---,0.00,VWS V14.01,2013-02-04 03:14:00,
2013-02-03 21:20:00,11.3,-5.9,29.94,WNW,302,0.0,0.0,45,0.00,,---,0.00,VWS V14.01,2013-02-04 03:20:00,
2013-02-03 21:25:00,11.3,-5.9,29.94,WNW,303,0.0,0.0,45,0.00,,---,0.00,VWS V14.01,2013-02-04 03:25:00,
2013-02-03 21:31:00,11.1,-6.1,29.94,WNW,302,0.0,0.0,45,0.00,,---,0.00,VWS V14.01,2013-02-04 03:31:00,
2013-02-03 21:37:00,11.1,-6.1,29.94,WNW,302,2.2,2.2,45,0.00,,---,0.00,VWS V14.01,2013-02-04 03:37:00,
2013-02-03 21:42:00,10.9,-6.2,29.94,WNW,302,0.0,0.0,45,0.00,,---,0.00,VWS V14.01,2013-02-04 03:42:00,
2013-02-03 21:48:00,10.8,-6.4,29.94,WNW,302,3.6,3.6,45,0.00,,---,0.00,VWS V14.01,2013-02-04 03:48:00,
2013-02-03 21:53:00,10.8,-6.4,29.94,WNW,302,0.0,3.1,45,0.00,,---,0.00,VWS V14.01,2013-02-04 03:53:00,
2013-02-03 21:58:00,10.9,-6.2,29.94,WNW,303,3.1,4.0,45,0.00,,---,0.00,VWS V14.01,2013-02-04 03:58:00,
2013-02-03 22:03:00,10.9,-6.2,29.97,WNW,302,4.0,4.0,45,0.00,,---,0.00,VWS V14.01,2013-02-04 04:03:00,
2013-02-03 22:09:00,10.9,-6.2,29.97,NW,311,3.6,5.4,45,0.00,,---,0.00,VWS V14.01,2013-02-04 04:09:00,
2013-02-03 22:15:00,10.8,-6.4,29.97,North,353,3.6,5.4,45,0.00,,---,0.00,VWS V14.01,2013-02-04 04:15:00,
2013-02-03 22:20:00,10.4,-6.7,29.97,North,357,3.6,4.5,45,0.00,,---,0.00,VWS V14.01,2013-02-04 04:20:00,
2013-02-03 22:26:00,10.4,-6.7,29.97,North,7,4.9,5.4,45,0.00,,---,0.00,VWS V14.01,2013-02-04 04:26:00,
2013-02-03 22:31:00,10.2,-6.9,29.97,North,353,0.0,2.7,45,0.00,,---,0.00,VWS V14.01,2013-02-04 04:31:00,
2013-02-03 22:36:00,10.0,-7.1,29.97,North,4,0.0,2.7,45,0.00,,---,0.00,VWS V14.01,2013-02-04 04:36:00,
2013-02-03 22:41:00,10.0,-7.1,29.97,NE,34,4.9,4.9,45,0.00,,---,0.00,VWS V14.01,2013-02-04 04:41:00,
2013-02-03 22:47:00,10.0,-7.1,29.94,North,11,3.1,3.6,45,0.00,,---,0.00,VWS V14.01,2013-02-04 04:47:00,
2013-02-03 22:52:00,10.2,-6.9,29.94,NNE,21,0.0,2.7,45,0.00,,---,0.00,VWS V14.01,2013-02-04 04:52:00,
2013-02-03 22:57:00,10.4,-6.7,29.94,NNE,32,2.7,4.0,45,0.00,,---,0.00,VWS V14.01,2013-02-04 04:57:00,
2013-02-03 23:02:00,10.4,-6.7,29.94,NNE,30,3.6,5.8,45,0.00,,---,0.00,VWS V14.01,2013-02-04 05:02:00,
2013-02-03 23:03:00,10.4,-6.7,29.94,NNE,12,4.0,5.8,45,0.00,,---,0.00,VWS V14.01,2013-02-04 05:03:00,
2013-02-03 23:04:00,10.4,-6.7,29.94,NNE,33,4.9,4.9,45,0.00,,---,0.00,VWS V14.01,2013-02-04 05:04:00,
2013-02-03 23:09:00,10.4,-6.7,29.94,NNE,33,3.1,3.1,45,0.00,,---,0.00,VWS V14.01,2013-02-04 05:09:00,
2013-02-03 23:14:00,10.2,-6.9,29.94,NNE,20,3.6,4.0,45,0.00,,---,0.00,VWS V14.01,2013-02-04 05:14:00,
2013-02-03 23:18:00,10.2,-6.9,29.97,North,6,4.0,4.0,45,0.00,,---,0.00,VWS V14.01,2013-02-04 05:18:00,
2013-02-03 23:23:00,10.2,-6.9,29.97,North,9,0.0,0.0,45,0.00,,---,0.00,VWS V14.01,2013-02-04 05:23:00,
2013-02-03 23:29:00,10.2,-6.9,29.97,North,8,3.1,3.6,45,0.00,,---,0.00,VWS V14.01,2013-02-04 05:29:00,
2013-02-03 23:34:00,10.2,-6.9,29.97,NNE,12,0.0,0.0,45,0.00,,---,0.00,VWS V14.01,2013-02-04 05:34:00,
2013-02-03 23:40:00,10.2,-6.9,29.97,NNE,13,4.0,4.0,45,0.00,,---,0.00,VWS V14.01,2013-02-04 05:40:00,
2013-02-03 23:45:00,10.0,-7.1,29.97,North,10,3.1,3.6,45,0.00,,---,0.00,VWS V14.01,2013-02-04 05:45:00,
2013-02-03 23:50:00,10.0,-7.1,29.97,North,8,2.2,2.2,45,0.00,,---,0.00,VWS V14.01,2013-02-04 05:50:00,
2013-02-03 23:55:00,10.0,-7.1,29.97,North,11,0.0,0.0,45,0.00,,---,0.00,VWS V14.01,2013-02-04 05:55:00,